Time;durP1;ratioP1;P1;durP2;ratioP2;P2;SDS_P1;SDS_P2;PMS_P1;PMS_P2;Temp;Humidity;BMP_temperature;BMP_pressure;BME280_temperature;BME280_humidity;BME280_pressure;Samples;Min_cycle;Max_cycle;Signal;HPM_P1;HPM_P2
2023/08/14 00:01:34;;;;;;;0.20;0.20;;;;;;;;;;6193333;22;20043;-95
2023/08/14 00:04:00;;;;;;;0.20;0.20;;;;;;;;;;6193186;22;20021;-95
2023/08/14 00:06:26;;;;;;;0.20;0.20;;;;;;;;;;6192225;22;20019;-95
2023/08/14 00:08:52;;;;;;;0.10;0.10;;;;;;;;;;6197111;22;20012;-96
2023/08/14 00:11:18;;;;;;;0.10;0.10;;;;;;;;;;6191997;22;20036;-94
2023/08/14 00:13:55;;;;;;;0.20;0.20;;;;;;;;;;6191729;22;20017;-93
2023/08/14 00:16:21;;;;;;;0.20;0.20;;;;;;;;;;6193466;22;20013;-96
2023/08/14 00:18:48;;;;;;;0.05;0.05;;;;;;;;;;6195931;22;20095;-96
2023/08/14 00:21:14;;;;;;;0.20;0.20;;;;;;;;;;6196354;22;20051;-94
2023/08/14 00:23:40;;;;;;;0.10;0.10;;;;;;;;;;6195480;22;20037;-95
2023/08/14 00:26:06;;;;;;;0.10;0.10;;;;;;;;;;6196918;22;20021;-96
2023/08/14 00:28:32;;;;;;;0.10;0.10;;;;;;;;;;6197587;22;20055;-96
2023/08/14 00:31:02;;;;;;;0.10;0.10;;;;;;;;;;6223796;22;20051;-96
2023/08/14 00:33:28;;;;;;;0.10;0.10;;;;;;;;;;6193944;22;20017;-94
2023/08/14 00:35:54;;;;;;;0.10;0.10;;;;;;;;;;6197835;22;20017;-94
2023/08/14 00:38:20;;;;;;;0.10;0.10;;;;;;;;;;6200996;22;20013;-95
2023/08/14 00:40:46;;;;;;;0.10;0.10;;;;;;;;;;6196682;22;20043;-95
2023/08/14 00:43:12;;;;;;;0.20;0.20;;;;;;;;;;6196975;22;20032;-93
2023/08/14 00:45:38;;;;;;;0.20;0.20;;;;;;;;;;6196214;22;20024;-96
2023/08/14 00:48:05;;;;;;;0.13;0.13;;;;;;;;;;6195804;22;20020;-96
2023/08/14 00:50:31;;;;;;;0.13;0.13;;;;;;;;;;6196541;22;20028;-96
2023/08/14 00:52:59;;;;;;;0.20;0.20;;;;;;;;;;6194526;22;20022;-96
2023/08/14 00:55:26;;;;;;;0.10;0.10;;;;;;;;;;6195533;22;20085;-96
2023/08/14 00:57:53;;;;;;;0.10;0.10;;;;;;;;;;6195981;22;20501;-96
2023/08/14 01:00:19;;;;;;;0.10;0.10;;;;;;;;;;6199012;22;20017;-96
2023/08/14 01:02:49;;;;;;;0.10;0.10;;;;;;;;;;6194879;22;20090;-96
2023/08/14 01:05:15;;;;;;;0.10;0.10;;;;;;;;;;6270549;22;20016;-95
2023/08/14 01:07:49;;;;;;;0.10;0.10;;;;;;;;;;6167807;22;20056;-96
2023/08/14 01:10:15;;;;;;;0.20;0.20;;;;;;;;;;6164149;22;20152;-96
2023/08/14 01:13:05;;;;;;;0.10;0.10;;;;;;;;;;6162521;22;20009;-94
2023/08/14 01:15:35;;;;;;;0.20;0.20;;;;;;;;;;6163977;23;20023;-96
2023/08/14 01:18:02;;;;;;;0.30;0.30;;;;;;;;;;6168146;22;20017;-95
2023/08/14 01:20:31;;;;;;;0.10;0.10;;;;;;;;;;6164277;22;20024;-95
2023/08/14 01:23:03;;;;;;;0.10;0.10;;;;;;;;;;6165860;22;20047;-96
2023/08/14 01:25:31;;;;;;;0.20;0.20;;;;;;;;;;6169964;22;20017;-95
2023/08/14 01:27:58;;;;;;;0.20;0.20;;;;;;;;;;6165242;22;20025;-96
2023/08/14 01:30:24;;;;;;;0.20;0.20;;;;;;;;;;6163715;23;20021;-96
2023/08/14 01:32:50;;;;;;;0.10;0.10;;;;;;;;;;6165462;22;20077;-95
2023/08/14 01:35:20;;;;;;;0.10;0.10;;;;;;;;;;6167143;22;20025;-95
2023/08/14 01:37:57;;;;;;;0.10;0.10;;;;;;;;;;6190869;23;20066;-95
2023/08/14 01:40:26;;;;;;;0.10;0.10;;;;;;;;;;6165244;22;20021;-95
2023/08/14 01:42:56;;;;;;;0.10;0.10;;;;;;;;;;6165437;22;20448;-93
2023/08/14 01:45:23;;;;;;;0.20;0.20;;;;;;;;;;6164813;23;20017;-93
2023/08/14 01:47:49;;;;;;;0.10;0.10;;;;;;;;;;6164916;23;20021;-93
2023/08/14 01:50:17;;;;;;;0.10;0.10;;;;;;;;;;6166798;22;20017;-96
2023/08/14 01:52:48;;;;;;;0.22;0.22;;;;;;;;;;6268832;22;20017;-95
2023/08/14 01:55:14;;;;;;;0.10;0.10;;;;;;;;;;6165626;23;20029;-94
2023/08/14 01:57:40;;;;;;;0.10;0.10;;;;;;;;;;6165462;22;20070;-95
2023/08/14 02:00:09;;;;;;;0.10;0.10;;;;;;;;;;6165860;22;20019;-95
2023/08/14 02:02:36;;;;;;;0.10;0.10;;;;;;;;;;6165723;22;20078;-96
2023/08/14 02:05:02;;;;;;;0.30;0.30;;;;;;;;;;6173503;22;20025;-96
2023/08/14 02:07:28;;;;;;;0.17;0.17;;;;;;;;;;6197288;22;20020;-96
2023/08/14 02:09:54;;;;;;;0.20;0.20;;;;;;;;;;6278216;22;20026;-95
2023/08/14 02:12:20;;;;;;;0.25;0.25;;;;;;;;;;6195487;22;20351;-94
2023/08/14 02:14:46;;;;;;;0.10;0.10;;;;;;;;;;6193176;22;20188;-96
2023/08/14 02:17:12;;;;;;;0.13;0.13;;;;;;;;;;6195127;22;20028;-96
2023/08/14 02:19:39;;;;;;;0.10;0.10;;;;;;;;;;6195091;22;20023;-94
2023/08/14 02:22:07;;;;;;;0.13;0.13;;;;;;;;;;6195350;22;20148;-96
2023/08/14 02:24:33;;;;;;;0.10;0.10;;;;;;;;;;6195340;22;20023;-96
2023/08/14 02:26:59;;;;;;;0.25;0.25;;;;;;;;;;6194662;22;20025;-96
2023/08/14 02:29:26;;;;;;;0.20;0.20;;;;;;;;;;6195248;22;20355;-95
2023/08/14 02:31:52;;;;;;;0.10;0.10;;;;;;;;;;6273400;22;20016;-96
2023/08/14 02:34:33;;;;;;;0.20;0.20;;;;;;;;;;6193570;22;20059;-96
2023/08/14 02:37:00;;;;;;;0.17;0.17;;;;;;;;;;6192538;22;20320;-94
2023/08/14 02:39:26;;;;;;;0.28;0.28;;;;;;;;;;6192657;22;20508;-96
2023/08/14 02:41:52;;;;;;;0.20;0.20;;;;;;;;;;6193189;22;20452;-96
2023/08/14 02:44:18;;;;;;;0.10;0.10;;;;;;;;;;6193743;22;20088;-94
2023/08/14 02:46:44;;;;;;;0.20;0.20;;;;;;;;;;6194161;22;20463;-94
2023/08/14 02:49:10;;;;;;;0.10;0.10;;;;;;;;;;6194392;22;20024;-95
2023/08/14 02:51:36;;;;;;;0.10;0.10;;;;;;;;;;6196575;22;20029;-95
2023/08/14 02:54:03;;;;;;;0.20;0.20;;;;;;;;;;6195695;22;20016;-95
2023/08/14 02:56:29;;;;;;;0.30;0.30;;;;;;;;;;6195344;22;20020;-94
2023/08/14 02:58:55;;;;;;;0.10;0.10;;;;;;;;;;6191733;22;20040;-94
2023/08/14 03:01:21;;;;;;;0.20;0.20;;;;;;;;;;6194954;22;20024;-95
2023/08/14 03:03:47;;;;;;;0.10;0.10;;;;;;;;;;6194629;22;20020;-96
2023/08/14 03:06:13;;;;;;;0.20;0.20;;;;;;;;;;6193855;22;20046;-96
2023/08/14 03:08:39;;;;;;;0.10;0.10;;;;;;;;;;6193603;22;20016;-93
2023/08/14 03:11:05;;;;;;;0.20;0.20;;;;;;;;;;6193566;22;20016;-95
2023/08/14 03:13:31;;;;;;;0.10;0.10;;;;;;;;;;6193059;22;20019;-95
2023/08/14 03:15:57;;;;;;;0.25;0.25;;;;;;;;;;6191787;22;20040;-94
2023/08/14 03:18:23;;;;;;;0.13;0.13;;;;;;;;;;6193011;22;20024;-93
2023/08/14 03:20:50;;;;;;;0.10;0.10;;;;;;;;;;6273946;22;20021;-93
2023/08/14 03:23:16;;;;;;;0.20;0.20;;;;;;;;;;6193384;22;20333;-94
2023/08/14 03:25:43;;;;;;;0.20;0.20;;;;;;;;;;6193782;22;20013;-95
2023/08/14 03:28:09;;;;;;;0.10;0.10;;;;;;;;;;6193821;22;20050;-95
2023/08/14 03:30:40;;;;;;;0.30;0.30;;;;;;;;;;6192020;22;20000;-94
2023/08/14 03:33:07;;;;;;;0.20;0.20;;;;;;;;;;6167262;22;20051;-93
2023/08/14 03:35:33;;;;;;;0.28;0.28;;;;;;;;;;6192553;22;20013;-95
2023/08/14 03:37:59;;;;;;;0.10;0.10;;;;;;;;;;6193370;22;20016;-95
2023/08/14 03:40:25;;;;;;;0.10;0.10;;;;;;;;;;6192626;22;20004;-95
2023/08/14 03:42:52;;;;;;;0.10;0.10;;;;;;;;;;6273034;22;20077;-95
2023/08/14 03:45:18;;;;;;;0.20;0.20;;;;;;;;;;6192347;22;20091;-94
2023/08/14 03:47:44;;;;;;;0.30;0.30;;;;;;;;;;6192976;22;20405;-95
2023/08/14 03:50:10;;;;;;;0.20;0.20;;;;;;;;;;6193313;22;20324;-94
2023/08/14 03:52:36;;;;;;;0.10;0.10;;;;;;;;;;6192218;22;20016;-95
2023/08/14 03:55:02;;;;;;;0.20;0.20;;;;;;;;;;6193299;22;20063;-93
2023/08/14 03:57:29;;;;;;;0.10;0.10;;;;;;;;;;6193762;22;20038;-95
2023/08/14 03:59:55;;;;;;;0.10;0.10;;;;;;;;;;6194471;22;20023;-94
2023/08/14 04:02:21;;;;;;;0.20;0.20;;;;;;;;;;6191575;22;20110;-95
2023/08/14 04:04:49;;;;;;;0.20;0.20;;;;;;;;;;6192254;22;20020;-94
2023/08/14 04:07:16;;;;;;;0.17;0.17;;;;;;;;;;6193168;22;20021;-95
2023/08/14 04:09:42;;;;;;;0.20;0.20;;;;;;;;;;6192908;22;20059;-95
2023/08/14 04:12:09;;;;;;;0.30;0.30;;;;;;;;;;6192539;22;20001;-94
2023/08/14 04:15:07;;;;;;;0.05;0.05;;;;;;;;;;6191139;22;20020;-95
2023/08/14 04:17:33;;;;;;;0.15;0.15;;;;;;;;;;6192083;22;20025;-93
2023/08/14 04:19:59;;;;;;;0.20;0.20;;;;;;;;;;6191871;22;20020;-94
2023/08/14 04:22:25;;;;;;;0.20;0.20;;;;;;;;;;6192234;22;20020;-94
2023/08/14 04:24:51;;;;;;;0.10;0.10;;;;;;;;;;6192292;22;20016;-93
2023/08/14 04:27:17;;;;;;;0.30;0.30;;;;;;;;;;6189553;22;20012;-93
2023/08/14 04:29:44;;;;;;;0.15;0.15;;;;;;;;;;6191383;22;20008;-94
2023/08/14 04:32:10;;;;;;;0.20;0.20;;;;;;;;;;6190588;22;20066;-95
2023/08/14 04:34:36;;;;;;;0.30;0.30;;;;;;;;;;6192324;22;20076;-95
2023/08/14 04:37:02;;;;;;;0.10;0.10;;;;;;;;;;6191260;22;20036;-93
2023/08/14 04:39:28;;;;;;;0.00;0.00;;;;;;;;;;6189638;22;20474;-93
2023/08/14 04:41:54;;;;;;;0.20;0.20;;;;;;;;;;6190294;22;20024;-92
2023/08/14 04:44:20;;;;;;;0.20;0.20;;;;;;;;;;6190380;22;20025;-94
2023/08/14 04:46:47;;;;;;;0.20;0.20;;;;;;;;;;6189938;22;20016;-95
2023/08/14 04:49:13;;;;;;;0.30;0.30;;;;;;;;;;6191951;22;20019;-94
2023/08/14 04:51:40;;;;;;;0.20;0.20;;;;;;;;;;6192697;22;20020;-92
2023/08/14 04:54:07;;;;;;;0.20;0.20;;;;;;;;;;6189085;22;20351;-93
2023/08/14 04:56:33;;;;;;;0.20;0.20;;;;;;;;;;6187669;22;20507;-92
2023/08/14 04:58:59;;;;;;;0.22;0.22;;;;;;;;;;6189959;22;20023;-94
2023/08/14 05:01:25;;;;;;;0.20;0.20;;;;;;;;;;6191363;22;20019;-93
2023/08/14 05:03:51;;;;;;;0.25;0.25;;;;;;;;;;6190783;22;20035;-94
2023/08/14 05:06:17;;;;;;;0.10;0.10;;;;;;;;;;6189326;22;20355;-91
2023/08/14 05:08:46;;;;;;;0.20;0.20;;;;;;;;;;6189195;23;20021;-93
2023/08/14 05:11:12;;;;;;;0.13;0.13;;;;;;;;;;6189550;22;20335;-93
2023/08/14 05:13:44;;;;;;;0.20;0.20;;;;;;;;;;6189523;22;20016;-93
2023/08/14 05:16:10;;;;;;;0.10;0.10;;;;;;;;;;6190276;22;20021;-94
2023/08/14 05:18:36;;;;;;;0.20;0.20;;;;;;;;;;6189804;22;20351;-93
2023/08/14 05:21:02;;;;;;;0.10;0.10;;;;;;;;;;6190823;22;20014;-93
2023/08/14 05:23:28;;;;;;;0.20;0.20;;;;;;;;;;6189713;22;20019;-93
2023/08/14 05:25:54;;;;;;;0.17;0.17;;;;;;;;;;6189856;22;20021;-94
2023/08/14 05:28:20;;;;;;;0.10;0.10;;;;;;;;;;6190446;22;20025;-94
2023/08/14 05:30:46;;;;;;;0.20;0.20;;;;;;;;;;6189436;22;20022;-92
2023/08/14 05:33:13;;;;;;;0.20;0.20;;;;;;;;;;6189724;22;20031;-93
2023/08/14 05:35:39;;;;;;;0.10;0.10;;;;;;;;;;6189246;22;20454;-93
2023/08/14 05:38:06;;;;;;;0.10;0.10;;;;;;;;;;6189244;22;20016;-93
2023/08/14 05:40:32;;;;;;;0.20;0.20;;;;;;;;;;6189410;22;20451;-93
2023/08/14 05:43:09;;;;;;;0.20;0.20;;;;;;;;;;6189551;22;20017;-93
2023/08/14 05:48:48;;;;;;;0.20;0.20;;;;;;;;;;6189697;22;20389;-94
2023/08/14 05:51:14;;;;;;;0.20;0.20;;;;;;;;;;6189770;22;20021;-93
2023/08/14 05:53:40;;;;;;;0.20;0.20;;;;;;;;;;6190968;22;20016;-93
2023/08/14 05:56:06;;;;;;;0.20;0.20;;;;;;;;;;6190485;22;20023;-93
2023/08/14 05:58:32;;;;;;;0.10;0.10;;;;;;;;;;6191260;22;20017;-93
2023/08/14 06:00:58;;;;;;;0.10;0.10;;;;;;;;;;6188897;22;20019;-92
2023/08/14 06:03:24;;;;;;;0.10;0.10;;;;;;;;;;6190679;22;20021;-93
2023/08/14 06:05:50;;;;;;;0.10;0.10;;;;;;;;;;6189601;22;20020;-93
2023/08/14 06:08:17;;;;;;;0.20;0.20;;;;;;;;;;6190792;22;20028;-94
2023/08/14 06:10:43;;;;;;;0.20;0.20;;;;;;;;;;6191785;22;20073;-95
2023/08/14 06:13:10;;;;;;;0.10;0.10;;;;;;;;;;6192580;22;20020;-94
2023/08/14 06:15:36;;;;;;;0.20;0.20;;;;;;;;;;6190826;22;20021;-94
2023/08/14 06:18:02;;;;;;;0.10;0.10;;;;;;;;;;6191046;22;20040;-92
2023/08/14 06:20:28;;;;;;;0.17;0.17;;;;;;;;;;6190483;22;20012;-94
2023/08/14 06:22:54;;;;;;;0.10;0.10;;;;;;;;;;6190866;22;20035;-94
2023/08/14 06:25:20;;;;;;;0.10;0.10;;;;;;;;;;6190726;22;20070;-94
2023/08/14 06:27:46;;;;;;;0.00;0.00;;;;;;;;;;6191256;22;20478;-93
2023/08/14 06:30:13;;;;;;;0.10;0.10;;;;;;;;;;6190969;22;20021;-93
2023/08/14 06:32:40;;;;;;;0.20;0.20;;;;;;;;;;6190400;22;20016;-93
2023/08/14 06:35:07;;;;;;;0.10;0.10;;;;;;;;;;6190882;22;20396;-94
2023/08/14 06:37:33;;;;;;;0.10;0.10;;;;;;;;;;6190536;22;20016;-92
2023/08/14 06:39:59;;;;;;;0.15;0.15;;;;;;;;;;6189540;22;20040;-89
2023/08/14 06:42:25;;;;;;;0.10;0.10;;;;;;;;;;6186337;22;20016;-91
2023/08/14 06:44:51;;;;;;;0.10;0.10;;;;;;;;;;6184912;22;20076;-91
2023/08/14 06:47:17;;;;;;;0.20;0.20;;;;;;;;;;6185075;22;20028;-89
2023/08/14 06:49:45;;;;;;;0.10;0.10;;;;;;;;;;6185472;22;20017;-91
2023/08/14 06:52:11;;;;;;;0.22;0.22;;;;;;;;;;6184453;22;20071;-90
2023/08/14 06:54:51;;;;;;;0.10;0.10;;;;;;;;;;6184889;23;20025;-91
2023/08/14 06:57:20;;;;;;;0.20;0.20;;;;;;;;;;6211808;22;20017;-90
2023/08/14 06:59:46;;;;;;;0.20;0.20;;;;;;;;;;6185349;22;20017;-91
2023/08/14 07:02:12;;;;;;;0.20;0.20;;;;;;;;;;6185080;22;20016;-90
2023/08/14 07:04:38;;;;;;;0.17;0.17;;;;;;;;;;6185155;22;20024;-90
2023/08/14 07:07:04;;;;;;;0.10;0.10;;;;;;;;;;6185364;22;20028;-88
2023/08/14 07:09:30;;;;;;;0.10;0.10;;;;;;;;;;6185383;22;20024;-90
2023/08/14 07:11:57;;;;;;;0.10;0.10;;;;;;;;;;6184403;22;20296;-91
2023/08/14 07:14:23;;;;;;;0.20;0.20;;;;;;;;;;6265215;22;20016;-90
2023/08/14 07:16:49;;;;;;;0.20;0.20;;;;;;;;;;6184849;22;20012;-94
2023/08/14 07:19:17;;;;;;;0.20;0.20;;;;;;;;;;6184982;22;20016;-91
2023/08/14 07:21:51;;;;;;;0.00;0.00;;;;;;;;;;6185495;22;20012;-88
2023/08/14 07:24:18;;;;;;;0.10;0.10;;;;;;;;;;6186380;22;20332;-90
2023/08/14 07:26:44;;;;;;;0.13;0.13;;;;;;;;;;6185404;22;20351;-88
2023/08/14 07:29:10;;;;;;;0.20;0.20;;;;;;;;;;6185416;22;20020;-90
2023/08/14 07:31:36;;;;;;;0.05;0.05;;;;;;;;;;6184903;22;20016;-90
2023/08/14 07:34:02;;;;;;;0.10;0.10;;;;;;;;;;6185503;22;20043;-91
2023/08/14 07:36:28;;;;;;;0.10;0.10;;;;;;;;;;6184942;22;20028;-90
2023/08/14 07:38:54;;;;;;;0.10;0.10;;;;;;;;;;6185278;22;20012;-92
2023/08/14 07:41:20;;;;;;;0.10;0.10;;;;;;;;;;6185807;22;20339;-90
2023/08/14 07:43:46;;;;;;;0.10;0.10;;;;;;;;;;6265434;22;20013;-91
2023/08/14 07:46:12;;;;;;;0.40;0.40;;;;;;;;;;6186042;22;20055;-91
2023/08/14 07:48:38;;;;;;;0.20;0.20;;;;;;;;;;6185275;22;20031;-90
2023/08/14 07:51:04;;;;;;;0.10;0.10;;;;;;;;;;6185749;22;20061;-91
2023/08/14 07:53:30;;;;;;;0.20;0.20;;;;;;;;;;6185331;22;20021;-93
2023/08/14 07:55:56;;;;;;;0.20;0.20;;;;;;;;;;6185349;22;20580;-90
2023/08/14 07:58:22;;;;;;;0.10;0.10;;;;;;;;;;6185415;22;20013;-91
2023/08/14 08:00:48;;;;;;;0.20;0.20;;;;;;;;;;6185776;22;20023;-90
2023/08/14 08:03:14;;;;;;;0.10;0.10;;;;;;;;;;6184615;22;20012;-87
2023/08/14 08:05:40;;;;;;;0.10;0.10;;;;;;;;;;6184156;22;20347;-86
2023/08/14 08:08:06;;;;;;;0.10;0.10;;;;;;;;;;6184174;22;20104;-89
2023/08/14 08:10:33;;;;;;;0.10;0.10;;;;;;;;;;6184390;22;20024;-90
2023/08/14 08:12:59;;;;;;;0.10;0.10;;;;;;;;;;6184089;22;20017;-90
2023/08/14 08:15:25;;;;;;;0.10;0.10;;;;;;;;;;6184526;22;20023;-89
2023/08/14 08:17:51;;;;;;;0.10;0.10;;;;;;;;;;6184331;22;20017;-89
2023/08/14 08:20:17;;;;;;;0.10;0.10;;;;;;;;;;6184424;22;20055;-88
2023/08/14 08:22:43;;;;;;;0.10;0.10;;;;;;;;;;6183720;23;20070;-88
2023/08/14 08:25:09;;;;;;;0.10;0.10;;;;;;;;;;6184175;22;20013;-89
2023/08/14 08:27:35;;;;;;;0.10;0.10;;;;;;;;;;6183973;22;20065;-88
2023/08/14 08:30:02;;;;;;;0.10;0.10;;;;;;;;;;6183913;22;20016;-89
2023/08/14 08:32:28;;;;;;;0.10;0.10;;;;;;;;;;6183457;22;20044;-90
2023/08/14 08:34:54;;;;;;;0.10;0.10;;;;;;;;;;6184345;22;20021;-90
2023/08/14 08:37:26;;;;;;;0.10;0.10;;;;;;;;;;6184194;22;20070;-90
2023/08/14 08:39:52;;;;;;;0.10;0.10;;;;;;;;;;6184282;22;20386;-90
2023/08/14 08:42:19;;;;;;;0.00;0.00;;;;;;;;;;6184125;22;20077;-89
2023/08/14 08:44:45;;;;;;;0.10;0.10;;;;;;;;;;6184625;22;20108;-90
2023/08/14 08:47:15;;;;;;;0.03;0.03;;;;;;;;;;6184808;22;20028;-90
2023/08/14 08:49:42;;;;;;;0.10;0.10;;;;;;;;;;6184578;22;20027;-90
2023/08/14 08:52:08;;;;;;;0.10;0.10;;;;;;;;;;6185013;23;20047;-90
2023/08/14 08:54:36;;;;;;;0.05;0.05;;;;;;;;;;6184755;22;20020;-90
2023/08/14 08:57:06;;;;;;;0.10;0.10;;;;;;;;;;6184595;22;20020;-91
2023/08/14 08:59:35;;;;;;;0.10;0.10;;;;;;;;;;6184985;22;20382;-92
2023/08/14 09:02:01;;;;;;;0.10;0.10;;;;;;;;;;6184433;22;20082;-89
2023/08/14 09:04:27;;;;;;;0.10;0.10;;;;;;;;;;6184737;22;20020;-91
2023/08/14 09:06:53;;;;;;;0.20;0.20;;;;;;;;;;6184776;22;20016;-91
2023/08/14 09:09:20;;;;;;;0.10;0.10;;;;;;;;;;6184551;22;20016;-91
2023/08/14 09:11:46;;;;;;;0.10;0.10;;;;;;;;;;6183736;22;20016;-94
2023/08/14 09:14:12;;;;;;;0.00;0.00;;;;;;;;;;6184701;22;20073;-92
2023/08/14 09:16:38;;;;;;;0.00;0.00;;;;;;;;;;6185016;22;20324;-92
2023/08/14 09:19:04;;;;;;;0.03;0.03;;;;;;;;;;6185462;22;20024;-90
2023/08/14 09:21:31;;;;;;;0.10;0.10;;;;;;;;;;6184940;22;20085;-90
2023/08/14 09:23:57;;;;;;;0.10;0.10;;;;;;;;;;6185465;22;20133;-91
2023/08/14 09:26:23;;;;;;;0.00;0.00;;;;;;;;;;6185210;22;20021;-91
2023/08/14 09:28:49;;;;;;;0.20;0.20;;;;;;;;;;6185225;22;20100;-91
2023/08/14 09:31:15;;;;;;;0.10;0.10;;;;;;;;;;6184810;22;20020;-91
2023/08/14 09:33:42;;;;;;;0.00;0.00;;;;;;;;;;6184760;22;20332;-92
2023/08/14 09:36:08;;;;;;;0.10;0.10;;;;;;;;;;6185862;22;20031;-90
2023/08/14 09:38:34;;;;;;;0.10;0.10;;;;;;;;;;6185307;22;20032;-91
2023/08/14 09:41:01;;;;;;;0.00;0.00;;;;;;;;;;6185317;22;20013;-90
2023/08/14 09:43:28;;;;;;;0.00;0.00;;;;;;;;;;6185610;22;20013;-92
2023/08/14 09:45:56;;;;;;;0.03;0.03;;;;;;;;;;6185419;22;20023;-92
2023/08/14 09:48:22;;;;;;;0.00;0.00;;;;;;;;;;6265478;22;20021;-91
2023/08/14 09:50:49;;;;;;;0.00;0.00;;;;;;;;;;6185558;22;20463;-93
2023/08/14 09:53:15;;;;;;;0.10;0.10;;;;;;;;;;6185225;22;20157;-92
2023/08/14 09:55:42;;;;;;;0.08;0.08;;;;;;;;;;6185678;22;20054;-91
2023/08/14 09:58:08;;;;;;;0.08;0.08;;;;;;;;;;6185119;22;20528;-92
2023/08/14 10:00:34;;;;;;;0.00;0.00;;;;;;;;;;6186469;22;20351;-92
2023/08/14 10:03:01;;;;;;;0.10;0.10;;;;;;;;;;6186466;22;20023;-92
2023/08/14 10:05:27;;;;;;;0.00;0.00;;;;;;;;;;6187277;22;20021;-93
2023/08/14 10:07:54;;;;;;;0.10;0.10;;;;;;;;;;6187071;22;20017;-91
2023/08/14 10:10:21;;;;;;;0.10;0.10;;;;;;;;;;6188372;22;20455;-92
2023/08/14 10:12:52;;;;;;;0.13;0.13;;;;;;;;;;6186892;22;20580;-93
2023/08/14 10:15:22;;;;;;;0.08;0.08;;;;;;;;;;6187082;22;20040;-92
2023/08/14 10:17:54;;;;;;;0.08;0.08;;;;;;;;;;6186942;22;20027;-90
2023/08/14 10:20:22;;;;;;;0.10;0.10;;;;;;;;;;6186997;22;20012;-91
2023/08/14 10:22:48;;;;;;;0.00;0.00;;;;;;;;;;6186533;22;20488;-91
2023/08/14 10:25:15;;;;;;;0.10;0.10;;;;;;;;;;6187380;22;20129;-91
2023/08/14 10:27:41;;;;;;;0.05;0.05;;;;;;;;;;6186922;22;20020;-91
2023/08/14 10:30:08;;;;;;;0.00;0.00;;;;;;;;;;6187468;22;20039;-90
2023/08/14 10:32:34;;;;;;;0.05;0.05;;;;;;;;;;6186415;22;20016;-93
2023/08/14 10:35:01;;;;;;;0.05;0.05;;;;;;;;;;6186332;22;20021;-93
2023/08/14 10:37:41;;;;;;;0.00;0.00;;;;;;;;;;6187085;22;20446;-91
2023/08/14 10:40:14;;;;;;;0.00;0.00;;;;;;;;;;6186628;22;20024;-92
2023/08/14 10:42:49;;;;;;;0.10;0.10;;;;;;;;;;6186363;22;20507;-93
2023/08/14 10:45:16;;;;;;;0.00;0.00;;;;;;;;;;6187039;22;20017;-90
2023/08/14 10:47:43;;;;;;;0.05;0.05;;;;;;;;;;6186439;22;20036;-92
2023/08/14 10:50:16;;;;;;;0.10;0.10;;;;;;;;;;6187105;22;20103;-92
2023/08/14 10:52:45;;;;;;;0.10;0.10;;;;;;;;;;6186672;22;20020;-93
2023/08/14 10:55:16;;;;;;;0.10;0.10;;;;;;;;;;6187286;22;20027;-92
2023/08/14 10:57:42;;;;;;;0.05;0.05;;;;;;;;;;6187967;22;20315;-93
2023/08/14 11:00:22;;;;;;;0.00;0.00;;;;;;;;;;6187586;22;20028;-91
2023/08/14 11:02:52;;;;;;;0.00;0.00;;;;;;;;;;6186707;22;20331;-93
2023/08/14 11:05:21;;;;;;;0.10;0.10;;;;;;;;;;6212714;22;20040;-93
2023/08/14 11:07:58;;;;;;;0.10;0.10;;;;;;;;;;6186655;22;20474;-92
2023/08/14 11:10:24;;;;;;;0.00;0.00;;;;;;;;;;6186534;22;20092;-92
2023/08/14 11:12:51;;;;;;;0.10;0.10;;;;;;;;;;6185876;22;20021;-93
2023/08/14 11:15:19;;;;;;;0.00;0.00;;;;;;;;;;6186500;22;20024;-92
2023/08/14 11:17:46;;;;;;;0.00;0.00;;;;;;;;;;6186675;22;20017;-94
2023/08/14 11:20:13;;;;;;;0.00;0.00;;;;;;;;;;6187471;22;20035;-93
2023/08/14 11:22:44;;;;;;;0.10;0.10;;;;;;;;;;6187165;22;20016;-92
2023/08/14 11:25:10;;;;;;;0.00;0.00;;;;;;;;;;6186278;22;20107;-93
2023/08/14 11:27:36;;;;;;;0.10;0.10;;;;;;;;;;6186385;22;20052;-91
2023/08/14 11:30:02;;;;;;;0.00;0.00;;;;;;;;;;6186716;22;20016;-91
2023/08/14 11:32:28;;;;;;;0.10;0.10;;;;;;;;;;6186529;22;20119;-91
2023/08/14 11:34:54;;;;;;;0.10;0.10;;;;;;;;;;6185557;22;20020;-90
2023/08/14 11:37:20;;;;;;;0.03;0.03;;;;;;;;;;6186330;22;20069;-93
2023/08/14 11:39:47;;;;;;;0.10;0.10;;;;;;;;;;6186833;22;20012;-93
2023/08/14 11:42:28;;;;;;;0.00;0.00;;;;;;;;;;6186000;22;20013;-92
2023/08/14 11:44:54;;;;;;;0.20;0.20;;;;;;;;;;6185570;23;20049;-93
2023/08/14 11:47:20;;;;;;;0.10;0.10;;;;;;;;;;6186814;22;20027;-92
2023/08/14 11:49:49;;;;;;;0.10;0.10;;;;;;;;;;6186595;22;20048;-92
2023/08/14 11:52:15;;;;;;;0.17;0.17;;;;;;;;;;6188129;22;20045;-94
2023/08/14 11:54:49;;;;;;;0.10;0.10;;;;;;;;;;6188455;22;20024;-94
2023/08/14 11:57:15;;;;;;;0.10;0.10;;;;;;;;;;6189132;22;20016;-90
2023/08/14 11:59:43;;;;;;;0.00;0.00;;;;;;;;;;6188188;22;20020;-94
2023/08/14 12:02:10;;;;;;;0.20;0.20;;;;;;;;;;6186828;22;20374;-93
2023/08/14 12:04:41;;;;;;;0.00;0.00;;;;;;;;;;6188581;22;20100;-95
2023/08/14 12:07:10;;;;;;;0.05;0.05;;;;;;;;;;6188475;22;20063;-93
2023/08/14 12:09:37;;;;;;;0.03;0.03;;;;;;;;;;6188613;22;20017;-94
2023/08/14 12:12:04;;;;;;;0.10;0.10;;;;;;;;;;6188771;22;20333;-94
2023/08/14 12:14:42;;;;;;;0.10;0.10;;;;;;;;;;6188532;22;20119;-96
2023/08/14 12:17:10;;;;;;;0.10;0.10;;;;;;;;;;6187598;22;20032;-93
2023/08/14 12:19:40;;;;;;;0.13;0.13;;;;;;;;;;6189314;22;20016;-95
2023/08/14 12:22:07;;;;;;;0.10;0.10;;;;;;;;;;6188521;22;20016;-95
2023/08/14 12:24:40;;;;;;;0.10;0.10;;;;;;;;;;6267521;22;20344;-93
2023/08/14 12:27:25;;;;;;;0.10;0.10;;;;;;;;;;6188354;22;20021;-92
2023/08/14 12:29:53;;;;;;;0.00;0.00;;;;;;;;;;6189404;22;20103;-93
2023/08/14 12:32:19;;;;;;;0.00;0.00;;;;;;;;;;6188061;22;20031;-93
2023/08/14 12:34:47;;;;;;;0.10;0.10;;;;;;;;;;6189741;22;20063;-95
2023/08/14 12:37:15;;;;;;;0.08;0.08;;;;;;;;;;6188144;22;20052;-95
2023/08/14 12:39:43;;;;;;;0.00;0.00;;;;;;;;;;6189097;22;20023;-96
2023/08/14 12:42:11;;;;;;;0.08;0.08;;;;;;;;;;6186371;22;20023;-91
2023/08/14 12:44:37;;;;;;;0.00;0.00;;;;;;;;;;6189250;22;20023;-93
2023/08/14 12:47:03;;;;;;;0.00;0.00;;;;;;;;;;6186659;22;20027;-92
2023/08/14 12:49:29;;;;;;;0.10;0.10;;;;;;;;;;6185705;22;20400;-90
2023/08/14 12:51:59;;;;;;;0.10;0.10;;;;;;;;;;6184867;22;20021;-90
2023/08/14 12:54:28;;;;;;;0.08;0.08;;;;;;;;;;6185531;22;20016;-91
2023/08/14 12:56:54;;;;;;;0.10;0.10;;;;;;;;;;6186115;22;20057;-90
2023/08/14 12:59:47;;;;;;;0.00;0.00;;;;;;;;;;6185165;22;20013;-89
2023/08/14 13:02:13;;;;;;;0.00;0.00;;;;;;;;;;6183645;22;20017;-89
2023/08/14 13:04:39;;;;;;;0.00;0.00;;;;;;;;;;6184374;22;20023;-89
2023/08/14 13:07:05;;;;;;;0.00;0.00;;;;;;;;;;6310367;22;20099;-88
2023/08/14 13:09:31;;;;;;;0.20;0.20;;;;;;;;;;6310864;22;20019;-89
2023/08/14 13:11:57;;;;;;;0.00;0.00;;;;;;;;;;6310974;22;20015;-90
2023/08/14 13:14:23;;;;;;;0.10;0.10;;;;;;;;;;6310732;22;20433;-90
2023/08/14 13:16:49;;;;;;;0.00;0.00;;;;;;;;;;6310763;22;20112;-93
2023/08/14 13:19:23;;;;;;;0.10;0.10;;;;;;;;;;6310977;22;20034;-91
2023/08/14 13:21:49;;;;;;;0.00;0.00;;;;;;;;;;6310916;22;20384;-89
2023/08/14 13:24:15;;;;;;;0.00;0.00;;;;;;;;;;6260208;22;20011;-89
2023/08/14 13:26:44;;;;;;;0.00;0.00;;;;;;;;;;6312131;22;20010;-91
2023/08/14 13:29:11;;;;;;;0.10;0.10;;;;;;;;;;6311620;22;20021;-91
2023/08/14 13:31:46;;;;;;;0.00;0.00;;;;;;;;;;6311210;22;20090;-91
2023/08/14 13:34:14;;;;;;;0.03;0.03;;;;;;;;;;6311728;22;20072;-91
2023/08/14 13:36:40;;;;;;;0.08;0.08;;;;;;;;;;6313864;22;20098;-91
2023/08/14 13:39:07;;;;;;;0.00;0.00;;;;;;;;;;6312755;22;20015;-91
2023/08/14 13:41:33;;;;;;;0.00;0.00;;;;;;;;;;6261193;22;20067;-90
2023/08/14 13:44:01;;;;;;;0.00;0.00;;;;;;;;;;6312788;22;20457;-93
2023/08/14 13:46:27;;;;;;;0.05;0.05;;;;;;;;;;6312804;22;20014;-90
2023/08/14 13:48:53;;;;;;;0.10;0.10;;;;;;;;;;6312731;22;20025;-91
2023/08/14 13:51:19;;;;;;;0.10;0.10;;;;;;;;;;6312924;22;20036;-92
2023/08/14 13:53:45;;;;;;;0.10;0.10;;;;;;;;;;6315421;22;20030;-93
2023/08/14 13:56:11;;;;;;;0.00;0.00;;;;;;;;;;6313719;22;20015;-92
2023/08/14 13:58:37;;;;;;;0.20;0.20;;;;;;;;;;6314164;22;20022;-93
2023/08/14 14:01:03;;;;;;;0.10;0.10;;;;;;;;;;6314152;22;20143;-93
2023/08/14 14:03:29;;;;;;;0.10;0.10;;;;;;;;;;6314753;22;20342;-93
2023/08/14 14:05:56;;;;;;;0.00;0.00;;;;;;;;;;6241528;22;20044;-91
2023/08/14 14:08:22;;;;;;;0.00;0.00;;;;;;;;;;6158162;23;20070;-92
2023/08/14 14:10:48;;;;;;;0.10;0.10;;;;;;;;;;6157037;23;20826;-93
2023/08/14 14:13:14;;;;;;;0.10;0.10;;;;;;;;;;6157598;23;20025;-92
2023/08/14 14:15:40;;;;;;;0.00;0.00;;;;;;;;;;6157669;23;20028;-92
2023/08/14 14:39:12;;;;;;;;;;;;;;;;;;;;;
2023/08/14 14:42:04;;;;;;;0.10;0.10;;;;;;;;;;6231693;23;20011;-91
2023/08/14 15:44:40;;;;;;;0.00;0.00;;;;;;;;;;6213483;23;20402;-92
2023/08/14 15:47:06;;;;;;;0.03;0.03;;;;;;;;;;6186116;22;20031;-90
2023/08/14 15:49:32;;;;;;;0.00;0.00;;;;;;;;;;6187022;22;20021;-92
2023/08/14 15:51:58;;;;;;;0.05;0.05;;;;;;;;;;6186488;22;20515;-92
2023/08/14 15:54:24;;;;;;;0.00;0.00;;;;;;;;;;6186269;22;20017;-90
2023/08/14 15:56:50;;;;;;;0.10;0.10;;;;;;;;;;6185393;22;20024;-89
2023/08/14 15:59:17;;;;;;;0.00;0.00;;;;;;;;;;6185763;22;20017;-91
2023/08/14 16:04:52;;;;;;;0.00;0.00;;;;;;;;;;6186202;22;20039;-90
2023/08/14 16:07:18;;;;;;;0.10;0.10;;;;;;;;;;6185740;22;20017;-90
2023/08/14 16:09:49;;;;;;;0.10;0.10;;;;;;;;;;6185727;22;20017;-91
2023/08/14 16:12:15;;;;;;;0.10;0.10;;;;;;;;;;6185495;23;20016;-90